Time;durP1;ratioP1;P1;durP2;ratioP2;P2;SDS_P1;SDS_P2;PMS_P1;PMS_P2;Temp;Humidity;BMP_temperature;BMP_pressure;BME280_temperature;BME280_humidity;BME280_pressure;Samples;Min_cycle;Max_cycle;Signal;HPM_P1;HPM_P2
2022/01/11 00:01:46;;;;;;;52.95;19.15;;;;;;;-0.44;100.00;103040.41;5107283;27;20266;-74
2022/01/11 00:04:17;;;;;;;53.13;20.20;;;;;;;-0.49;100.00;103034.94;5107170;27;20078;-75
2022/01/11 00:06:48;;;;;;;70.32;21.45;;;;;;;-0.53;100.00;103043.44;5110187;27;20134;-75
2022/01/11 00:09:23;;;;;;;55.80;21.02;;;;;;;-0.48;100.00;103049.81;5107945;27;20081;-74
2022/01/11 00:11:51;;;;;;;61.85;19.83;;;;;;;-0.42;100.00;103044.00;5108412;27;20054;-75
2022/01/11 00:14:19;;;;;;;64.28;20.20;;;;;;;-0.45;100.00;103039.47;5106451;27;20043;-75
2022/01/11 00:16:47;;;;;;;71.45;25.35;;;;;;;-0.46;100.00;103045.56;5106487;27;20180;-75
2022/01/11 00:19:18;;;;;;;63.13;22.95;;;;;;;-0.44;100.00;103036.06;5102797;27;20052;-75
2022/01/11 00:21:48;;;;;;;59.85;21.27;;;;;;;-0.44;100.00;103049.16;5107365;27;20075;-75
2022/01/11 00:24:29;;;;;;;69.68;21.80;;;;;;;-0.39;100.00;103062.50;5104762;27;20667;-73
2022/01/11 00:27:00;;;;;;;61.53;20.67;;;;;;;-0.38;100.00;103074.78;5106321;27;20645;-76
2022/01/11 00:29:29;;;;;;;69.60;22.67;;;;;;;-0.33;100.00;103067.16;5108152;27;20083;-77
2022/01/11 00:32:02;;;;;;;62.08;19.63;;;;;;;-0.35;100.00;103074.06;5109847;27;21735;-75
2022/01/11 00:34:39;;;;;;;76.72;24.15;;;;;;;-0.41;100.00;103072.94;5109664;27;20699;-75
2022/01/11 00:37:08;;;;;;;77.57;23.83;;;;;;;-0.37;100.00;103068.72;5108242;27;20044;-75
2022/01/11 00:39:37;;;;;;;71.97;23.38;;;;;;;-0.34;100.00;103068.88;5111773;27;20142;-74
2022/01/11 00:42:06;;;;;;;71.00;22.98;;;;;;;-0.32;100.00;103082.97;5111066;27;20130;-74
2022/01/11 00:44:34;;;;;;;71.18;24.10;;;;;;;-0.32;100.00;103077.72;5106525;27;20079;-74
2022/01/11 00:47:03;;;;;;;65.68;21.58;;;;;;;-0.30;100.00;103073.44;5107528;27;20047;-73
2022/01/11 00:49:32;;;;;;;60.30;20.67;;;;;;;-0.30;100.00;103072.56;5107719;27;20043;-74
2022/01/11 00:52:00;;;;;;;66.25;22.33;;;;;;;-0.30;100.00;103064.69;5107278;27;20067;-74
2022/01/11 00:54:28;;;;;;;50.10;18.55;;;;;;;-0.24;100.00;103067.56;5109801;27;20126;-74
2022/01/11 00:56:58;;;;;;;58.75;22.75;;;;;;;-0.27;100.00;103067.47;5106100;27;20057;-74
2022/01/11 00:59:26;;;;;;;57.85;22.70;;;;;;;-0.30;100.00;103070.81;5107126;27;20040;-73
2022/01/11 01:01:54;;;;;;;54.05;22.25;;;;;;;-0.26;100.00;103072.75;5107661;27;20450;-73
2022/01/11 01:04:22;;;;;;;54.58;21.17;;;;;;;-0.17;100.00;103074.03;5108140;27;20039;-74
2022/01/11 01:06:54;;;;;;;59.72;19.90;;;;;;;-0.25;100.00;103077.19;5107040;27;20292;-73
2022/01/11 01:09:23;;;;;;;53.50;20.00;;;;;;;-0.23;100.00;103069.38;5109555;27;20051;-74
2022/01/11 01:11:51;;;;;;;70.03;22.83;;;;;;;-0.23;100.00;103072.00;5106004;27;20057;-73
2022/01/11 01:14:21;;;;;;;61.47;21.35;;;;;;;-0.26;100.00;103072.75;5104935;27;20058;-73
2022/01/11 01:16:49;;;;;;;70.60;25.33;;;;;;;-0.25;100.00;103071.03;5107050;27;20112;-73
2022/01/11 01:19:19;;;;;;;74.43;21.60;;;;;;;-0.19;100.00;103071.31;5108216;27;20057;-74
2022/01/11 01:21:49;;;;;;;65.50;21.88;;;;;;;-0.17;100.00;103074.94;5106162;27;20065;-73
2022/01/11 01:27:26;;;;;;;70.00;23.10;;;;;;;-0.14;100.00;103076.81;5106553;27;20055;-74
2022/01/11 01:30:12;;;;;;;68.65;23.42;;;;;;;-0.17;100.00;103074.03;5100511;27;20047;-74
2022/01/11 01:35:32;;;;;;;72.07;24.63;;;;;;;-0.12;100.00;103070.81;5089708;27;20059;-75
2022/01/11 01:38:06;;;;;;;66.03;23.30;;;;;;;-0.12;100.00;103083.00;5101229;27;20126;-74
2022/01/11 01:41:06;;;;;;;;;;;;;;;-0.11;100.00;103080.47;5108857;27;20050;-73
2022/01/11 01:43:38;;;;;;;69.68;22.15;;;;;;;-0.12;100.00;103081.31;5098118;27;20033;-75
2022/01/11 01:46:13;;;;;;;63.13;23.30;;;;;;;-0.16;100.00;103074.09;5106723;27;20142;-75
2022/01/11 01:48:42;;;;;;;75.82;25.13;;;;;;;-0.13;100.00;103076.88;5098664;27;20047;-75
2022/01/11 01:51:11;;;;;;;89.50;27.45;;;;;;;-0.13;100.00;103083.84;5106118;27;20047;-75
2022/01/11 01:53:42;;;;;;;90.50;28.65;;;;;;;-0.19;100.00;103081.81;5105027;27;20043;-75
2022/01/11 01:56:10;;;;;;;87.10;25.33;;;;;;;-0.15;100.00;103085.47;5108069;27;20795;-75
2022/01/11 01:58:38;;;;;;;78.03;25.83;;;;;;;-0.11;100.00;103090.06;5103859;27;20047;-75
2022/01/11 02:01:06;;;;;;;80.05;26.65;;;;;;;-0.09;100.00;103089.31;5107159;27;20682;-75
2022/01/11 02:03:40;;;;;;;85.88;29.08;;;;;;;-0.13;100.00;103094.34;5104035;27;20051;-75
2022/01/11 02:06:09;;;;;;;83.28;26.63;;;;;;;-0.12;100.00;103089.19;5100387;27;20293;-75
2022/01/11 02:08:40;;;;;;;103.22;32.05;;;;;;;-0.12;100.00;103093.50;5098408;27;20493;-75
2022/01/11 02:11:08;;;;;;;77.80;26.08;;;;;;;-0.09;100.00;103093.66;5100050;27;20043;-73
2022/01/11 02:13:37;;;;;;;85.72;29.58;;;;;;;-0.11;100.00;103098.84;5103599;27;20505;-74
2022/01/11 02:16:06;;;;;;;78.72;25.17;;;;;;;-0.06;100.00;103091.19;5102698;27;20060;-73
2022/01/11 02:19:01;;;;;;;93.68;27.73;;;;;;;-0.07;100.00;103089.38;5105804;27;20054;-73
2022/01/11 02:21:32;;;;;;;85.88;28.50;;;;;;;-0.14;100.00;103088.19;5106615;27;20161;-73
2022/01/11 02:24:07;;;;;;;74.88;24.83;;;;;;;-0.03;100.00;103100.09;5102855;27;20101;-75
2022/01/11 02:27:07;;;;;;;79.00;27.15;;;;;;;-0.07;100.00;103105.13;5102928;27;20511;-73
2022/01/11 02:29:42;;;;;;;69.10;22.45;;;;;;;-0.07;100.00;103107.75;5104824;27;20043;-73
2022/01/11 02:32:11;;;;;;;76.32;24.77;;;;;;;-0.08;100.00;103106.88;5105468;27;20171;-72
2022/01/11 02:34:45;;;;;;;;;;;;;;;-0.06;100.00;103107.81;5103658;27;20055;-74
2022/01/11 02:37:31;;;;;;;79.68;24.23;;;;;;;-0.07;100.00;103106.06;5100900;27;19935;-73
2022/01/11 02:40:08;;;;;;;80.95;25.67;;;;;;;-0.07;100.00;103099.88;5103833;27;20122;-73
2022/01/11 02:42:48;;;;;;;76.55;23.75;;;;;;;-0.05;100.00;103109.66;5092105;27;20082;-73
2022/01/11 02:45:37;;;;;;;66.85;25.85;;;;;;;-0.09;100.00;103104.16;5104493;27;20039;-74
2022/01/11 02:48:17;;;;;;;73.10;24.80;;;;;;;-0.07;100.00;103103.44;5100750;27;20055;-73
2022/01/11 02:51:09;;;;;;;75.72;23.10;;;;;;;-0.07;100.00;103098.19;5088432;27;20054;-73
2022/01/11 02:53:59;;;;;;;81.97;26.98;;;;;;;-0.06;100.00;103112.19;5100496;27;20103;-73
2022/01/11 02:56:45;;;;;;;68.10;24.15;;;;;;;-0.07;100.00;103106.06;5088283;27;20055;-73
2022/01/11 03:02:03;;;;;;;87.55;24.00;;;;;;;-0.05;100.00;103096.50;5102779;27;20135;-73
2022/01/11 03:04:33;;;;;;;87.90;26.92;;;;;;;-0.04;100.00;103108.78;5104765;28;20128;-73
2022/01/11 03:07:06;;;;;;;87.18;27.48;;;;;;;-0.04;100.00;103111.41;5089807;28;20555;-73
2022/01/11 03:09:51;;;;;;;77.90;26.33;;;;;;;-0.04;100.00;103116.66;5103503;28;20089;-74
2022/01/11 03:12:19;;;;;;;85.57;27.63;;;;;;;-0.06;100.00;103127.94;5101679;27;20051;-73
2022/01/11 03:17:41;;;;;;;73.10;26.98;;;;;;;-0.05;100.00;103132.34;5106337;27;20039;-74
2022/01/11 03:20:10;;;;;;;84.90;25.80;;;;;;;-0.05;100.00;103129.72;5103635;27;20532;-73
2022/01/11 03:22:39;;;;;;;83.45;26.77;;;;;;;-0.05;100.00;103132.34;5104736;27;20142;-74
2022/01/11 03:25:09;;;;;;;74.47;25.83;;;;;;;-0.04;100.00;103121.91;5105109;28;20102;-73
2022/01/11 03:27:38;;;;;;;81.75;25.45;;;;;;;-0.05;100.00;103120.13;5103138;27;20051;-73
2022/01/11 03:30:07;;;;;;;77.82;26.75;;;;;;;-0.06;100.00;103131.44;5107048;28;20051;-74
2022/01/11 03:32:35;;;;;;;91.28;29.00;;;;;;;-0.06;100.00;103122.69;5104847;27;20534;-75
2022/01/11 03:35:04;;;;;;;89.32;29.90;;;;;;;-0.06;100.00;103122.69;5103926;28;20552;-75
2022/01/11 03:37:32;;;;;;;71.30;24.92;;;;;;;-0.06;100.00;103127.94;5101320;27;20527;-73
2022/01/11 03:40:01;;;;;;;83.53;26.52;;;;;;;-0.06;100.00;103125.31;5103275;28;20053;-74
2022/01/11 03:42:30;;;;;;;75.50;24.58;;;;;;;-0.09;100.00;103136.56;5106266;27;20112;-74
2022/01/11 03:45:00;;;;;;;76.55;25.27;;;;;;;-0.11;100.00;103124.19;5101447;28;20047;-73
2022/01/11 03:47:35;;;;;;;75.13;25.13;;;;;;;-0.13;100.00;103126.75;5105108;27;20090;-74
2022/01/11 03:50:03;;;;;;;97.07;29.15;;;;;;;-0.15;100.00;103136.28;5105435;27;20059;-73
2022/01/11 03:52:32;;;;;;;80.45;26.05;;;;;;;-0.17;100.00;103124.81;5105933;27;20138;-74
2022/01/11 03:55:03;;;;;;;84.25;26.77;;;;;;;-0.19;100.00;103113.31;5104696;27;20054;-73
2022/01/11 03:57:34;;;;;;;75.97;27.42;;;;;;;-0.22;100.00;103106.19;5111477;27;20134;-73
2022/01/11 04:00:07;;;;;;;74.47;26.70;;;;;;;-0.23;100.00;103108.75;5108086;27;20065;-74
2022/01/11 04:02:37;;;;;;;82.38;27.30;;;;;;;-0.22;100.00;103106.19;5110327;27;20096;-75
2022/01/11 04:05:06;;;;;;;79.70;26.70;;;;;;;-0.28;100.00;103105.00;5107286;27;20149;-75
2022/01/11 04:07:34;;;;;;;76.22;26.40;;;;;;;-0.28;100.00;103116.38;5110053;27;20047;-74
2022/01/11 04:10:02;;;;;;;78.20;26.33;;;;;;;-0.30;100.00;103104.03;5108354;27;20078;-73
2022/01/11 04:12:30;;;;;;;75.25;25.50;;;;;;;-0.32;100.00;103110.91;5107598;27;20126;-75
2022/01/11 04:15:00;;;;;;;74.10;26.73;;;;;;;-0.35;100.00;103111.66;5109873;27;20119;-75
2022/01/11 04:17:27;;;;;;;76.10;26.95;;;;;;;-0.36;100.00;103112.47;5108327;27;20134;-75
2022/01/11 04:19:55;;;;;;;77.50;27.17;;;;;;;-0.38;100.00;103114.13;5106662;27;20243;-75
2022/01/11 04:22:23;;;;;;;73.18;25.05;;;;;;;-0.33;100.00;103120.50;5105663;27;20054;-73
2022/01/11 04:24:51;;;;;;;71.28;25.10;;;;;;;-0.37;100.00;103123.81;5107441;27;20047;-73
2022/01/11 04:27:18;;;;;;;65.88;23.17;;;;;;;-0.38;100.00;103125.53;5107835;27;20051;-73
2022/01/11 04:29:48;;;;;;;75.82;27.17;;;;;;;-0.39;100.00;103129.00;5107459;27;21745;-74
2022/01/11 04:32:17;;;;;;;71.95;25.75;;;;;;;-0.35;100.00;103124.78;5104569;27;20054;-76
2022/01/11 04:34:45;;;;;;;76.43;26.55;;;;;;;-0.28;100.00;103139.13;5108284;27;20081;-74
2022/01/11 04:37:13;;;;;;;89.70;28.13;;;;;;;-0.29;100.00;103137.31;5106633;27;20146;-73
2022/01/11 04:40:06;;;;;;;76.70;24.92;;;;;;;-0.27;100.00;103128.69;5109223;27;20074;-73
2022/01/11 04:42:34;;;;;;;89.03;28.27;;;;;;;-0.33;100.00;103123.13;5104920;27;20051;-75
2022/01/11 04:45:02;;;;;;;77.43;27.70;;;;;;;-0.30;100.00;103125.03;5109442;27;20142;-74
2022/01/11 04:47:32;;;;;;;77.78;27.95;;;;;;;-0.32;100.00;103126.66;5106311;27;20057;-74
2022/01/11 04:50:01;;;;;;;77.03;27.42;;;;;;;-0.30;100.00;103136.41;5107242;27;20051;-74
2022/01/11 04:52:29;;;;;;;80.32;28.05;;;;;;;-0.29;100.00;103132.97;5108555;27;20130;-74
2022/01/11 04:54:57;;;;;;;77.72;26.30;;;;;;;-0.22;100.00;103131.56;5110594;27;20055;-74
2022/01/11 04:57:43;;;;;;;68.03;24.75;;;;;;;-0.28;100.00;103136.50;5106316;27;20043;-74
2022/01/11 05:00:13;;;;;;;81.25;28.30;;;;;;;-0.30;100.00;103130.28;5109463;27;20576;-73
2022/01/11 05:02:42;;;;;;;66.53;25.75;;;;;;;-0.27;100.00;103126.06;5105360;27;20166;-74
2022/01/11 05:08:24;;;;;;;66.47;23.92;;;;;;;-0.30;100.00;103123.28;5105993;27;20118;-74
2022/01/11 05:10:52;;;;;;;68.18;25.13;;;;;;;-0.25;100.00;103123.53;5105896;27;20051;-74
2022/01/11 05:13:23;;;;;;;73.40;25.38;;;;;;;-0.25;100.00;103132.28;5105990;27;20757;-73
2022/01/11 05:19:12;;;;;;;58.03;23.40;;;;;;;-0.23;100.00;103130.63;5108768;27;20327;-74
2022/01/11 05:22:08;;;;;;;67.95;24.58;;;;;;;-0.21;100.00;103134.22;5110762;27;20087;-73
2022/01/11 05:24:45;;;;;;;62.22;24.00;;;;;;;-0.19;100.00;103129.06;5106058;27;20059;-73
2022/01/11 05:27:30;;;;;;;65.78;26.05;;;;;;;-0.18;100.00;103127.34;5107387;27;20054;-74
2022/01/11 05:36:31;;;;;;;61.78;23.73;;;;;;;-0.15;100.00;103133.66;5087488;27;20117;-73
2022/01/11 05:39:32;;;;;;;60.58;22.83;;;;;;;-0.17;100.00;103132.69;5093565;27;20160;-73
2022/01/11 05:42:33;;;;;;;67.97;24.65;;;;;;;-0.16;100.00;103141.44;5099120;27;20058;-73
2022/01/11 05:45:26;;;;;;;67.53;23.52;;;;;;;-0.12;100.00;103152.19;5098546;27;21493;-73
2022/01/11 05:48:02;;;;;;;53.63;21.08;;;;;;;-0.12;100.00;103141.69;5096354;27;20043;-73
2022/01/11 05:50:43;;;;;;;64.15;24.38;;;;;;;-0.10;100.00;103149.59;5108170;27;20450;-73
2022/01/11 05:53:26;;;;;;;55.42;22.08;;;;;;;-0.11;100.00;103153.97;5092663;27;20502;-73
2022/01/11 05:56:28;;;;;;;55.22;21.65;;;;;;;-0.11;100.00;103159.22;5081836;27;20502;-73
2022/01/11 06:02:24;;;;;;;49.83;19.75;;;;;;;-0.08;100.00;103158.47;5109650;27;20047;-73
2022/01/11 06:05:26;;;;;;;60.17;21.90;;;;;;;-0.09;100.00;103157.56;5090742;27;20054;-73
2022/01/11 06:08:37;;;;;;;60.80;22.67;;;;;;;-0.11;100.00;103146.06;5101100;27;20069;-74
2022/01/11 06:11:22;;;;;;;52.72;22.15;;;;;;;-0.11;100.00;103145.19;5107634;27;20053;-73
2022/01/11 06:14:04;;;;;;;58.63;21.58;;;;;;;-0.11;100.00;103134.69;5090320;27;20051;-74
2022/01/11 06:16:37;;;;;;;61.25;20.73;;;;;;;-0.10;100.00;103133.84;5087214;27;20099;-74
2022/01/11 06:19:14;;;;;;;50.13;19.17;;;;;;;-0.12;100.00;103136.44;5096848;27;20048;-74
2022/01/11 06:24:52;;;;;;;60.20;23.17;;;;;;;-0.10;100.00;103161.03;5107583;27;20801;-74
2022/01/11 06:27:52;;;;;;;54.97;21.90;;;;;;;-0.08;100.00;103164.63;5104556;27;20719;-74
2022/01/11 06:30:24;;;;;;;50.58;20.63;;;;;;;-0.13;100.00;103158.25;5097916;27;20073;-74
2022/01/11 06:33:17;;;;;;;59.08;20.13;;;;;;;-0.08;100.00;103166.34;5077416;27;20043;-75
2022/01/11 06:38:50;;;;;;;51.47;18.50;;;;;;;-0.05;100.00;103174.34;5106424;27;20058;-74
2022/01/11 06:41:40;;;;;;;58.55;23.15;;;;;;;-0.02;100.00;103177.13;5091372;27;20048;-74
2022/01/11 06:44:19;;;;;;;48.20;18.95;;;;;;;-0.01;100.00;103168.44;5102726;27;20091;-75
2022/01/11 06:46:56;;;;;;;48.20;17.58;;;;;;;-0.01;100.00;103177.19;5106693;27;20312;-74
2022/01/11 06:49:40;;;;;;;43.80;19.35;;;;;;;0.02;100.00;103180.78;5105076;27;20043;-75
2022/01/11 06:52:15;;;;;;;48.22;19.13;;;;;;;0.03;100.00;103183.50;5086373;28;20095;-74
2022/01/11 06:54:49;;;;;;;46.45;18.80;;;;;;;0.02;100.00;103186.97;5104484;27;20047;-74
2022/01/11 06:57:29;;;;;;;49.03;18.73;;;;;;;0.03;100.00;103191.38;5104769;27;20053;-74
2022/01/11 07:00:39;;;;;;;43.28;16.33;;;;;;;0.03;100.00;103195.72;5103194;28;20544;-74
2022/01/11 07:03:25;;;;;;;43.08;17.63;;;;;;;0.06;100.00;103188.00;5088870;28;20043;-74
2022/01/11 07:06:08;;;;;;;46.38;16.75;;;;;;;0.09;100.00;103190.78;5106319;27;20118;-75
2022/01/11 07:08:49;;;;;;;52.88;17.98;;;;;;;0.04;100.00;103192.31;5104368;27;20089;-75
2022/01/11 07:14:24;;;;;;;40.28;17.67;;;;;;;0.03;100.00;103193.09;5102789;28;20534;-75
2022/01/11 07:17:02;;;;;;;47.63;20.02;;;;;;;0.06;100.00;103188.00;5087025;28;20052;-74
2022/01/11 07:19:32;;;;;;;43.58;17.60;;;;;;;0.04;100.00;103200.16;5103633;28;20127;-75
2022/01/11 07:22:13;;;;;;;49.25;18.85;;;;;;;0.03;100.00;103201.88;5107151;27;20138;-74
2022/01/11 07:24:46;;;;;;;52.50;17.98;;;;;;;0.03;100.00;103203.63;5101714;28;20198;-74
2022/01/11 07:27:27;;;;;;;41.80;18.25;;;;;;;0.01;100.00;103207.91;5080001;28;20067;-74
2022/01/11 07:30:02;;;;;;;44.70;17.75;;;;;;;0.00;100.00;103214.88;5090014;27;20165;-74
2022/01/11 07:32:36;;;;;;;41.38;17.20;;;;;;;-0.02;100.00;103227.00;5091146;27;20308;-75
2022/01/11 07:35:05;;;;;;;35.42;15.88;;;;;;;-0.04;100.00;103229.53;5108194;27;20780;-74
2022/01/11 07:37:32;;;;;;;43.50;18.48;;;;;;;-0.06;100.00;103227.69;5098418;27;20468;-74
2022/01/11 07:40:00;;;;;;;40.83;17.40;;;;;;;-0.04;100.00;103233.91;5110677;27;20344;-75
2022/01/11 07:42:28;;;;;;;44.13;16.95;;;;;;;-0.01;100.00;103231.44;5107820;27;20059;-74
2022/01/11 07:44:56;;;;;;;46.75;18.23;;;;;;;-0.04;100.00;103231.28;5105508;27;20601;-74
2022/01/11 07:47:25;;;;;;;35.60;13.70;;;;;;;-0.08;100.00;103229.34;5109223;27;20555;-76
2022/01/11 07:49:54;;;;;;;42.00;15.90;;;;;;;-0.08;100.00;103237.22;5107626;27;20144;-75
2022/01/11 07:52:27;;;;;;;34.50;16.45;;;;;;;-0.04;100.00;103234.78;5105618;27;20059;-75
2022/01/11 07:55:00;;;;;;;39.28;15.38;;;;;;;-0.04;100.00;103240.03;5105489;27;20051;-75
2022/01/11 07:57:46;;;;;;;39.80;17.40;;;;;;;-0.07;100.00;103244.25;5108886;27;20115;-74
2022/01/11 08:00:28;;;;;;;34.83;15.73;;;;;;;-0.11;100.00;103243.19;5104537;27;20063;-73
2022/01/11 08:03:02;;;;;;;36.13;16.45;;;;;;;-0.13;100.00;103238.72;5101079;27;20483;-75
2022/01/11 08:05:50;;;;;;;37.85;16.13;;;;;;;-0.15;100.00;103236.00;5110280;27;20385;-75
2022/01/11 08:08:34;;;;;;;44.13;17.65;;;;;;;-0.13;100.00;103239.59;5095515;27;20051;-73
2022/01/11 08:11:10;;;;;;;36.47;16.30;;;;;;;-0.11;100.00;103242.31;5110317;27;20048;-73
2022/01/11 08:13:43;;;;;;;36.67;14.77;;;;;;;-0.14;100.00;103245.66;5074561;27;20060;-73
2022/01/11 08:16:17;;;;;;;35.00;14.98;;;;;;;-0.15;100.00;103246.50;5093344;27;20167;-73
2022/01/11 08:18:55;;;;;;;37.78;14.57;;;;;;;-0.12;100.00;103248.38;5105785;27;20104;-74
2022/01/11 08:21:47;;;;;;;35.25;14.80;;;;;;;-0.11;100.00;103251.06;5090671;27;20142;-73
2022/01/11 08:27:26;;;;;;;39.63;16.50;;;;;;;-0.06;100.00;103253.94;5105754;27;20101;-73
2022/01/11 08:30:01;;;;;;;39.33;16.65;;;;;;;-0.08;100.00;103264.34;5106871;27;20043;-74
2022/01/11 08:32:31;;;;;;;39.33;17.42;;;;;;;-0.07;100.00;103266.16;5096812;27;20050;-74
2022/01/11 08:38:00;;;;;;;38.85;18.42;;;;;;;-0.04;100.00;103258.44;5101738;27;20162;-75
2022/01/11 08:40:28;;;;;;;36.03;15.25;;;;;;;-0.03;100.00;103260.25;5107062;27;20409;-75
2022/01/11 08:42:56;;;;;;;40.42;15.40;;;;;;;-0.03;100.00;103262.88;5109341;27;20047;-75
2022/01/11 08:45:27;;;;;;;34.55;16.42;;;;;;;-0.03;100.00;103260.25;5105747;27;20775;-74
2022/01/11 08:48:04;;;;;;;36.38;15.50;;;;;;;0.01;100.00;103263.03;5106251;27;20055;-74
2022/01/11 08:50:52;;;;;;;27.73;13.30;;;;;;;0.02;100.00;103262.19;5104462;27;20494;-74
2022/01/11 08:54:02;;;;;;;37.72;15.40;;;;;;;0.00;100.00;103267.38;5087558;27;20973;-74
2022/01/11 08:59:43;;;;;;;37.45;15.85;;;;;;;0.02;100.00;103268.34;5104101;27;20055;-75
2022/01/11 09:02:11;;;;;;;36.33;15.32;;;;;;;0.08;100.00;103270.38;5101918;27;20056;-75
2022/01/11 09:04:40;;;;;;;32.50;13.40;;;;;;;0.11;100.00;103267.91;5108898;27;20486;-75
2022/01/11 09:07:08;;;;;;;29.02;12.73;;;;;;;0.13;100.00;103266.25;5110789;27;20108;-73
2022/01/11 09:09:38;;;;;;;30.65;14.60;;;;;;;0.11;100.00;103273.16;5107935;27;20051;-75
2022/01/11 09:12:15;;;;;;;32.53;13.20;;;;;;;0.15;100.00;103272.47;5109133;27;20043;-73
2022/01/11 09:15:09;;;;;;;29.10;13.88;;;;;;;0.18;100.00;103281.41;5105236;27;20051;-73
2022/01/11 09:18:39;;;;;;;43.30;13.60;;;;;;;0.22;100.00;103282.44;5109513;27;20334;-73
2022/01/11 09:21:48;;;;;;;29.65;13.32;;;;;;;0.21;100.00;103283.28;5104071;27;20059;-74
2022/01/11 09:27:29;;;;;;;31.33;14.05;;;;;;;0.27;100.00;103272.19;5104413;27;20054;-74
2022/01/11 09:30:31;;;;;;;34.13;15.63;;;;;;;0.38;100.00;103275.34;5094071;27;20506;-74
2022/01/11 09:33:26;;;;;;;36.63;14.23;;;;;;;0.33;100.00;103286.53;5103324;27;20053;-73
2022/01/11 09:36:26;;;;;;;34.88;14.48;;;;;;;0.35;100.00;103283.97;5102043;27;20437;-73
2022/01/11 09:39:21;;;;;;;33.90;14.00;;;;;;;0.34;100.00;103277.81;5087504;27;21144;-73
2022/01/11 09:41:59;;;;;;;25.70;11.73;;;;;;;0.34;100.00;103287.41;5102803;27;20059;-73
2022/01/11 09:44:32;;;;;;;35.22;12.45;;;;;;;0.38;100.00;103293.75;5095400;27;20047;-76
2022/01/11 09:47:01;;;;;;;28.30;12.50;;;;;;;0.38;100.00;103288.50;5105668;27;20468;-75
2022/01/11 09:49:29;;;;;;;35.58;13.80;;;;;;;0.36;100.00;103291.03;5105800;27;20043;-73
2022/01/11 09:52:02;;;;;;;32.33;13.45;;;;;;;0.44;100.00;103291.41;5107528;27;20333;-75
2022/01/11 09:54:30;;;;;;;32.75;14.65;;;;;;;0.56;100.00;103284.09;5103147;27;20191;-75
2022/01/11 09:56:57;;;;;;;33.65;13.45;;;;;;;0.59;100.00;103288.63;5106571;27;20052;-74
2022/01/11 09:59:25;;;;;;;29.67;13.35;;;;;;;0.64;100.00;103285.38;5107488;27;20052;-73
2022/01/11 10:01:57;;;;;;;34.03;14.73;;;;;;;0.67;100.00;103293.41;5108213;27;20151;-74
2022/01/11 10:04:26;;;;;;;35.72;15.32;;;;;;;0.72;100.00;103289.28;5102230;27;20039;-73
2022/01/11 10:07:17;;;;;;;30.45;13.85;;;;;;;0.79;100.00;103289.59;5109281;27;20408;-73
2022/01/11 10:10:19;;;;;;;35.75;14.07;;;;;;;0.81;100.00;103286.19;5106091;27;20212;-73
2022/01/11 10:13:04;;;;;;;36.40;15.23;;;;;;;0.86;100.00;103284.66;5107563;27;20058;-74
2022/01/11 10:15:44;;;;;;;27.73;12.35;;;;;;;0.93;100.00;103281.50;5105994;27;20047;-73
2022/01/11 10:18:38;;;;;;;33.63;14.02;;;;;;;1.04;100.00;103284.63;5108633;27;20050;-74
2022/01/11 10:21:31;;;;;;;27.08;13.57;;;;;;;1.15;100.00;103285.13;5103822;27;20051;-73
2022/01/11 10:23:59;;;;;;;29.48;12.70;;;;;;;1.31;100.00;103289.34;5108736;27;20075;-73
2022/01/11 10:26:43;;;;;;;33.63;14.57;;;;;;;1.36;100.00;103297.44;5108730;27;20043;-73
2022/01/11 10:29:25;;;;;;;30.60;13.07;;;;;;;1.50;100.00;103301.63;5107975;27;20135;-74
2022/01/11 10:31:55;;;;;;;32.80;13.02;;;;;;;1.58;100.00;103308.09;5105672;27;20051;-74
2022/01/11 10:34:30;;;;;;;32.63;12.98;;;;;;;1.77;100.00;103307.19;5105336;27;20054;-73
2022/01/11 10:37:00;;;;;;;27.85;13.82;;;;;;;1.91;100.00;103312.13;5101601;27;20100;-73
2022/01/11 10:39:32;;;;;;;32.92;13.68;;;;;;;1.95;100.00;103314.97;5107014;27;20144;-74
2022/01/11 10:42:01;;;;;;;33.97;13.65;;;;;;;2.16;100.00;103315.00;5105789;27;20161;-74
2022/01/11 10:44:50;;;;;;;30.13;13.15;;;;;;;2.24;100.00;103316.22;5108678;27;20057;-74
2022/01/11 10:47:24;;;;;;;34.92;15.63;;;;;;;2.33;100.00;103325.34;5101917;27;20061;-74
2022/01/11 10:50:27;;;;;;;33.30;12.73;;;;;;;2.31;100.00;103319.13;5103737;27;20164;-74
2022/01/11 10:52:56;;;;;;;30.67;13.65;;;;;;;2.40;100.00;103320.41;5106932;27;20410;-74
2022/01/11 10:55:28;;;;;;;22.60;11.25;;;;;;;2.55;100.00;103316.59;5106272;27;20047;-73
2022/01/11 10:58:12;;;;;;;27.17;12.50;;;;;;;2.49;100.00;103309.34;5090075;27;20054;-73
2022/01/11 11:00:48;;;;;;;24.23;11.30;;;;;;;2.51;100.00;103305.03;5104013;27;20062;-73
2022/01/11 11:03:21;;;;;;;27.40;11.70;;;;;;;2.54;100.00;103302.50;5098975;28;20471;-74
2022/01/11 11:06:17;;;;;;;26.88;11.80;;;;;;;2.54;100.00;103305.16;5090081;28;20055;-73
2022/01/11 11:08:49;;;;;;;32.60;13.10;;;;;;;2.68;100.00;103304.81;5105809;27;20594;-74
2022/01/11 11:11:20;;;;;;;31.05;12.52;;;;;;;2.70;100.00;103301.38;5106477;28;20226;-74
2022/01/11 11:13:51;;;;;;;28.33;13.48;;;;;;;2.68;100.00;103304.81;5107136;27;20517;-73
2022/01/11 11:16:21;;;;;;;35.30;13.43;;;;;;;2.66;100.00;103304.75;5098168;28;20053;-74
2022/01/11 11:18:57;;;;;;;32.22;13.43;;;;;;;2.66;100.00;103307.38;5094526;28;20047;-73
2022/01/11 11:21:36;;;;;;;32.75;13.65;;;;;;;2.77;100.00;103311.31;5090038;28;20093;-74
2022/01/11 11:24:06;;;;;;;30.92;13.38;;;;;;;2.79;100.00;103320.22;5106768;28;20131;-73
2022/01/11 11:26:39;;;;;;;31.42;13.20;;;;;;;2.89;100.00;103315.28;5104692;28;20048;-74
2022/01/11 11:29:13;;;;;;;32.47;14.13;;;;;;;2.86;100.00;103316.09;5102984;28;20043;-73
2022/01/11 11:32:14;;;;;;;29.30;12.52;;;;;;;3.07;100.00;103320.41;5108392;28;20093;-74
2022/01/11 11:34:48;;;;;;;32.88;14.07;;;;;;;3.10;100.00;103323.13;5105404;28;20054;-75
2022/01/11 11:37:22;;;;;;;29.58;12.32;;;;;;;3.22;100.00;103328.91;5105702;28;20095;-75
2022/01/11 11:39:56;;;;;;;31.08;13.10;;;;;;;3.30;100.00;103322.19;5099682;28;20527;-75
2022/01/11 11:42:24;;;;;;;;;;;;;;;3.37;100.00;103331.19;5103231;28;20047;-75
2022/01/11 11:44:52;;;;;;;27.75;11.98;;;;;;;3.44;100.00;103327.97;5104932;27;19927;-75
2022/01/11 11:47:31;;;;;;;29.17;12.15;;;;;;;3.66;100.00;103337.56;5106869;28;20089;-75
2022/01/11 11:50:06;;;;;;;27.90;11.98;;;;;;;4.04;100.00;103335.38;5106066;27;20905;-74
2022/01/11 11:52:44;;;;;;;27.40;12.20;;;;;;;3.96;100.00;103331.56;5088225;28;20036;-74
2022/01/11 11:55:20;;;;;;;31.90;12.23;;;;;;;4.08;100.00;103333.75;5090775;27;20043;-74
2022/01/11 11:57:54;;;;;;;33.30;13.35;;;;;;;3.74;100.00;103328.16;5103387;28;20261;-74
2022/01/11 12:00:28;;;;;;;30.40;12.55;;;;;;;3.71;100.00;103328.06;5104180;28;20055;-74
2022/01/11 12:02:59;;;;;;;28.10;12.00;;;;;;;3.70;100.00;103323.63;5086153;28;20688;-75
2022/01/11 12:05:35;;;;;;;30.48;13.00;;;;;;;3.74;100.00;103322.00;5104014;27;20056;-75
2022/01/11 12:08:31;;;;;;;29.75;12.07;;;;;;;3.79;100.00;103319.53;5102072;28;20056;-74
2022/01/11 12:11:04;;;;;;;30.27;13.10;;;;;;;3.77;100.00;103305.38;5102031;27;20324;-74
2022/01/11 12:14:03;;;;;;;25.33;10.90;;;;;;;3.85;100.00;103314.47;5104759;27;20075;-74
2022/01/11 12:16:56;;;;;;;31.00;13.57;;;;;;;3.88;100.00;103309.28;5102446;27;20868;-74
2022/01/11 12:19:42;;;;;;;33.35;12.55;;;;;;;3.70;100.00;103307.78;5106781;27;20118;-74
2022/01/11 12:22:17;;;;;;;33.42;13.00;;;;;;;3.68;100.00;103300.66;5106501;27;20047;-74
2022/01/11 12:24:51;;;;;;;28.88;13.23;;;;;;;3.85;100.00;103303.91;5106926;27;20143;-76
2022/01/11 12:27:22;;;;;;;35.22;14.15;;;;;;;4.17;100.00;103302.38;5086971;27;20054;-74
2022/01/11 12:30:02;;;;;;;28.75;12.75;;;;;;;4.32;100.00;103301.06;5106800;27;20427;-74
2022/01/11 12:32:33;;;;;;;27.70;12.77;;;;;;;4.42;100.00;103300.53;5105249;27;20657;-74
2022/01/11 12:35:28;;;;;;;27.80;12.18;;;;;;;4.64;100.00;103288.91;5106561;27;20766;-74